sensor_id;sensor_type;location;lat;lon;timestamp;P1;durP1;ratioP1;P2;durP2;ratioP2
69334;SDS011;56477;52.742;15.242;2024-03-23T00:56:01;12.10;;;3.10;;
69334;SDS011;56477;52.742;15.242;2024-03-23T00:58:26;18.77;;;3.10;;
69334;SDS011;56477;52.742;15.242;2024-03-23T01:00:52;18.60;;;4.00;;
69334;SDS011;56477;52.742;15.242;2024-03-23T01:03:18;14.33;;;2.97;;
69334;SDS011;56477;52.742;15.242;2024-03-23T01:05:44;15.55;;;3.28;;
69334;SDS011;56477;52.742;15.242;2024-03-23T01:08:10;17.48;;;3.55;;
69334;SDS011;56477;52.742;15.242;2024-03-23T01:10:36;11.45;;;3.20;;
69334;SDS011;56477;52.742;15.242;2024-03-23T01:13:02;16.50;;;3.77;;
69334;SDS011;56477;52.742;15.242;2024-03-23T01:15:28;13.88;;;3.78;;
69334;SDS011;56477;52.742;15.242;2024-03-23T01:17:53;12.40;;;3.63;;
69334;SDS011;56477;52.742;15.242;2024-03-23T01:20:19;15.30;;;4.13;;
69334;SDS011;56477;52.742;15.242;2024-03-23T01:22:45;22.48;;;4.05;;
69334;SDS011;56477;52.742;15.242;2024-03-23T01:25:11;11.27;;;3.23;;
69334;SDS011;56477;52.742;15.242;2024-03-23T01:27:37;5.82;;;1.35;;
69334;SDS011;56477;52.742;15.242;2024-03-23T01:30:03;10.25;;;2.00;;
69334;SDS011;56477;52.742;15.242;2024-03-23T01:32:29;13.38;;;2.13;;
69334;SDS011;56477;52.742;15.242;2024-03-23T01:34:55;8.67;;;1.30;;
69334;SDS011;56477;52.742;15.242;2024-03-23T01:37:21;10.45;;;2.20;;
69334;SDS011;56477;52.742;15.242;2024-03-23T01:39:47;7.85;;;1.80;;
69334;SDS011;56477;52.742;15.242;2024-03-23T01:42:12;9.77;;;1.37;;
69334;SDS011;56477;52.742;15.242;2024-03-23T01:44:38;10.32;;;2.00;;
69334;SDS011;56477;52.742;15.242;2024-03-23T01:47:06;14.02;;;2.17;;
69334;SDS011;56477;52.742;15.242;2024-03-23T01:49:32;12.63;;;1.83;;
69334;SDS011;56477;52.742;15.242;2024-03-23T01:51:59;7.57;;;1.63;;
69334;SDS011;56477;52.742;15.242;2024-03-23T01:54:25;12.00;;;1.92;;
69334;SDS011;56477;52.742;15.242;2024-03-23T01:56:51;12.85;;;2.22;;
69334;SDS011;56477;52.742;15.242;2024-03-23T01:59:17;12.27;;;1.77;;
69334;SDS011;56477;52.742;15.242;2024-03-23T02:01:43;12.55;;;1.95;;
69334;SDS011;56477;52.742;15.242;2024-03-23T02:04:09;11.60;;;2.33;;
69334;SDS011;56477;52.742;15.242;2024-03-23T02:06:35;10.85;;;1.95;;
69334;SDS011;56477;52.742;15.242;2024-03-23T02:09:01;9.15;;;2.03;;
69334;SDS011;56477;52.742;15.242;2024-03-23T02:11:29;8.73;;;1.83;;
69334;SDS011;56477;52.742;15.242;2024-03-23T02:13:55;16.93;;;2.20;;
69334;SDS011;56477;52.742;15.242;2024-03-23T02:16:20;7.97;;;1.95;;
69334;SDS011;56477;52.742;15.242;2024-03-23T02:18:46;11.65;;;1.83;;
69334;SDS011;56477;52.742;15.242;2024-03-23T02:21:12;13.27;;;2.70;;
69334;SDS011;56477;52.742;15.242;2024-03-23T02:23:38;11.77;;;1.90;;
69334;SDS011;56477;52.742;15.242;2024-03-23T02:26:04;15.75;;;2.17;;
69334;SDS011;56477;52.742;15.242;2024-03-23T02:28:30;9.57;;;2.20;;
69334;SDS011;56477;52.742;15.242;2024-03-23T02:30:55;12.77;;;2.70;;
69334;SDS011;56477;52.742;15.242;2024-03-23T02:33:21;11.85;;;2.00;;
69334;SDS011;56477;52.742;15.242;2024-03-23T02:35:47;12.07;;;2.00;;
69334;SDS011;56477;52.742;15.242;2024-03-23T02:38:13;13.90;;;3.03;;
69334;SDS011;56477;52.742;15.242;2024-03-23T02:40:39;10.15;;;2.22;;
69334;SDS011;56477;52.742;15.242;2024-03-23T02:43:05;10.13;;;2.03;;
69334;SDS011;56477;52.742;15.242;2024-03-23T02:45:31;15.50;;;2.27;;
69334;SDS011;56477;52.742;15.242;2024-03-23T02:47:57;9.80;;;2.00;;
69334;SDS011;56477;52.742;15.242;2024-03-23T02:50:23;11.82;;;2.10;;
69334;SDS011;56477;52.742;15.242;2024-03-23T02:52:49;13.07;;;2.80;;
69334;SDS011;56477;52.742;15.242;2024-03-23T02:55:15;12.57;;;2.17;;
69334;SDS011;56477;52.742;15.242;2024-03-23T02:57:41;14.18;;;2.28;;
69334;SDS011;56477;52.742;15.242;2024-03-23T03:00:07;12.73;;;2.00;;
69334;SDS011;56477;52.742;15.242;2024-03-23T03:02:33;13.10;;;2.30;;
69334;SDS011;56477;52.742;15.242;2024-03-23T03:04:59;13.32;;;1.88;;
69334;SDS011;56477;52.742;15.242;2024-03-23T03:07:25;8.80;;;1.95;;
69334;SDS011;56477;52.742;15.242;2024-03-23T03:09:51;10.30;;;1.83;;
69334;SDS011;56477;52.742;15.242;2024-03-23T03:12:17;13.50;;;2.30;;
69334;SDS011;56477;52.742;15.242;2024-03-23T03:14:43;12.40;;;1.93;;
69334;SDS011;56477;52.742;15.242;2024-03-23T03:17:09;12.65;;;2.08;;
69334;SDS011;56477;52.742;15.242;2024-03-23T03:19:35;14.57;;;2.30;;
69334;SDS011;56477;52.742;15.242;2024-03-23T03:22:01;11.48;;;2.50;;
69334;SDS011;56477;52.742;15.242;2024-03-23T03:24:26;11.90;;;2.57;;
69334;SDS011;56477;52.742;15.242;2024-03-23T03:26:52;11.65;;;2.13;;
69334;SDS011;56477;52.742;15.242;2024-03-23T03:29:18;15.10;;;2.53;;
69334;SDS011;56477;52.742;15.242;2024-03-23T03:31:44;13.20;;;2.73;;
69334;SDS011;56477;52.742;15.242;2024-03-23T03:34:10;10.57;;;1.90;;
69334;SDS011;56477;52.742;15.242;2024-03-23T03:36:36;14.20;;;2.25;;
69334;SDS011;56477;52.742;15.242;2024-03-23T03:39:02;9.23;;;2.13;;
69334;SDS011;56477;52.742;15.242;2024-03-23T03:41:31;12.55;;;2.72;;
69334;SDS011;56477;52.742;15.242;2024-03-23T03:43:57;10.98;;;2.53;;
69334;SDS011;56477;52.742;15.242;2024-03-23T03:46:27;13.93;;;2.50;;
69334;SDS011;56477;52.742;15.242;2024-03-23T03:48:54;12.03;;;2.60;;
69334;SDS011;56477;52.742;15.242;2024-03-23T03:51:20;8.63;;;2.38;;
69334;SDS011;56477;52.742;15.242;2024-03-23T03:53:46;14.73;;;2.53;;
69334;SDS011;56477;52.742;15.242;2024-03-23T03:56:12;9.80;;;2.42;;
69334;SDS011;56477;52.742;15.242;2024-03-23T03:58:38;8.77;;;2.37;;
69334;SDS011;56477;52.742;15.242;2024-03-23T04:01:04;11.60;;;2.00;;
69334;SDS011;56477;52.742;15.242;2024-03-23T04:03:29;10.68;;;2.08;;
69334;SDS011;56477;52.742;15.242;2024-03-23T04:05:56;11.23;;;2.33;;
69334;SDS011;56477;52.742;15.242;2024-03-23T04:08:21;12.57;;;2.20;;
69334;SDS011;56477;52.742;15.242;2024-03-23T04:10:48;15.68;;;2.28;;
69334;SDS011;56477;52.742;15.242;2024-03-23T04:13:13;10.93;;;1.83;;
69334;SDS011;56477;52.742;15.242;2024-03-23T04:15:40;11.82;;;2.53;;
69334;SDS011;56477;52.742;15.242;2024-03-23T04:18:06;12.13;;;2.33;;
69334;SDS011;56477;52.742;15.242;2024-03-23T04:20:32;12.88;;;2.22;;
69334;SDS011;56477;52.742;15.242;2024-03-23T04:23:00;12.87;;;2.17;;
69334;SDS011;56477;52.742;15.242;2024-03-23T04:25:27;10.15;;;2.20;;
69334;SDS011;56477;52.742;15.242;2024-03-23T04:27:52;10.27;;;2.57;;
69334;SDS011;56477;52.742;15.242;2024-03-23T04:30:18;9.23;;;2.42;;
69334;SDS011;56477;52.742;15.242;2024-03-23T04:32:44;16.00;;;3.10;;
69334;SDS011;56477;52.742;15.242;2024-03-23T04:35:10;9.75;;;3.10;;
69334;SDS011;56477;52.742;15.242;2024-03-23T04:37:37;11.37;;;3.80;;
69334;SDS011;56477;52.742;15.242;2024-03-23T04:40:03;12.82;;;2.70;;
69334;SDS011;56477;52.742;15.242;2024-03-23T04:42:30;11.38;;;2.58;;
69334;SDS011;56477;52.742;15.242;2024-03-23T04:44:56;10.02;;;1.98;;
69334;SDS011;56477;52.742;15.242;2024-03-23T04:47:22;14.87;;;2.67;;
69334;SDS011;56477;52.742;15.242;2024-03-23T04:49:48;12.27;;;2.33;;
69334;SDS011;56477;52.742;15.242;2024-03-23T04:52:15;12.05;;;2.15;;
69334;SDS011;56477;52.742;15.242;2024-03-23T04:54:41;9.05;;;2.13;;
69334;SDS011;56477;52.742;15.242;2024-03-23T04:57:08;9.97;;;2.43;;
69334;SDS011;56477;52.742;15.242;2024-03-23T04:59:33;10.68;;;1.95;;
69334;SDS011;56477;52.742;15.242;2024-03-23T05:01:59;22.00;;;8.05;;
69334;SDS011;56477;52.742;15.242;2024-03-23T05:04:26;11.75;;;2.63;;
69334;SDS011;56477;52.742;15.242;2024-03-23T05:06:52;8.03;;;2.53;;
69334;SDS011;56477;52.742;15.242;2024-03-23T05:09:18;13.13;;;2.83;;
69334;SDS011;56477;52.742;15.242;2024-03-23T05:11:45;12.05;;;2.20;;
69334;SDS011;56477;52.742;15.242;2024-03-23T05:14:14;11.40;;;2.43;;
69334;SDS011;56477;52.742;15.242;2024-03-23T05:16:40;11.93;;;2.95;;
69334;SDS011;56477;52.742;15.242;2024-03-23T05:19:06;13.00;;;2.80;;
69334;SDS011;56477;52.742;15.242;2024-03-23T05:21:32;11.27;;;3.00;;
69334;SDS011;56477;52.742;15.242;2024-03-23T05:23:58;13.10;;;3.15;;
69334;SDS011;56477;52.742;15.242;2024-03-23T05:26:24;11.65;;;2.97;;
69334;SDS011;56477;52.742;15.242;2024-03-23T05:28:50;18.53;;;3.10;;
69334;SDS011;56477;52.742;15.242;2024-03-23T05:31:26;15.32;;;4.18;;
69334;SDS011;56477;52.742;15.242;2024-03-23T05:33:52;11.30;;;2.92;;
69334;SDS011;56477;52.742;15.242;2024-03-23T05:36:18;10.75;;;2.92;;
69334;SDS011;56477;52.742;15.242;2024-03-23T05:38:44;18.70;;;3.50;;
69334;SDS011;56477;52.742;15.242;2024-03-23T05:41:10;18.50;;;3.55;;
69334;SDS011;56477;52.742;15.242;2024-03-23T05:43:36;13.50;;;2.53;;
69334;SDS011;56477;52.742;15.242;2024-03-23T05:46:03;19.77;;;2.87;;
69334;SDS011;56477;52.742;15.242;2024-03-23T05:48:30;14.52;;;2.88;;
69334;SDS011;56477;52.742;15.242;2024-03-23T05:50:57;12.95;;;2.70;;
69334;SDS011;56477;52.742;15.242;2024-03-23T05:53:23;13.50;;;2.78;;
69334;SDS011;56477;52.742;15.242;2024-03-23T05:55:50;14.55;;;3.05;;
69334;SDS011;56477;52.742;15.242;2024-03-23T05:58:19;12.13;;;2.93;;
69334;SDS011;56477;52.742;15.242;2024-03-23T06:00:45;11.07;;;2.30;;
69334;SDS011;56477;52.742;15.242;2024-03-23T06:03:11;11.15;;;2.25;;
69334;SDS011;56477;52.742;15.242;2024-03-23T06:05:37;11.60;;;2.30;;
69334;SDS011;56477;52.742;15.242;2024-03-23T06:08:03;16.23;;;2.63;;
69334;SDS011;56477;52.742;15.242;2024-03-23T06:10:30;8.93;;;2.47;;
69334;SDS011;56477;52.742;15.242;2024-03-23T06:12:57;10.27;;;2.42;;
69334;SDS011;56477;52.742;15.242;2024-03-23T06:15:24;9.65;;;1.98;;
69334;SDS011;56477;52.742;15.242;2024-03-23T06:17:50;10.43;;;2.40;;
69334;SDS011;56477;52.742;15.242;2024-03-23T06:20:16;16.90;;;3.22;;
69334;SDS011;56477;52.742;15.242;2024-03-23T06:22:42;10.43;;;2.78;;
69334;SDS011;56477;52.742;15.242;2024-03-23T06:25:08;10.93;;;2.72;;
69334;SDS011;56477;52.742;15.242;2024-03-23T06:27:34;15.07;;;3.13;;
69334;SDS011;56477;52.742;15.242;2024-03-23T06:30:00;13.80;;;2.88;;
69334;SDS011;56477;52.742;15.242;2024-03-23T06:32:27;10.70;;;2.60;;
69334;SDS011;56477;52.742;15.242;2024-03-23T06:34:54;11.87;;;2.93;;
69334;SDS011;56477;52.742;15.242;2024-03-23T06:37:20;13.85;;;3.35;;
69334;SDS011;56477;52.742;15.242;2024-03-23T06:39:46;14.77;;;3.53;;
69334;SDS011;56477;52.742;15.242;2024-03-23T06:42:12;12.80;;;3.90;;
69334;SDS011;56477;52.742;15.242;2024-03-23T06:44:38;14.00;;;4.20;;
69334;SDS011;56477;52.742;15.242;2024-03-23T06:47:05;8.50;;;2.95;;
69334;SDS011;56477;52.742;15.242;2024-03-23T06:49:31;10.57;;;3.00;;
69334;SDS011;56477;52.742;15.242;2024-03-23T06:51:57;16.17;;;3.70;;
69334;SDS011;56477;52.742;15.242;2024-03-23T06:54:24;11.20;;;3.63;;
69334;SDS011;56477;52.742;15.242;2024-03-23T06:56:50;14.15;;;3.90;;
69334;SDS011;56477;52.742;15.242;2024-03-23T06:59:16;12.68;;;4.13;;
69334;SDS011;56477;52.742;15.242;2024-03-23T07:01:41;14.10;;;3.58;;
69334;SDS011;56477;52.742;15.242;2024-03-23T07:04:07;12.97;;;4.03;;
69334;SDS011;56477;52.742;15.242;2024-03-23T07:06:33;10.77;;;3.10;;
69334;SDS011;56477;52.742;15.242;2024-03-23T07:08:59;10.75;;;2.92;;
69334;SDS011;56477;52.742;15.242;2024-03-23T07:11:25;10.00;;;2.70;;
69334;SDS011;56477;52.742;15.242;2024-03-23T07:13:52;10.20;;;3.00;;
69334;SDS011;56477;52.742;15.242;2024-03-23T07:16:22;9.20;;;3.20;;
69334;SDS011;56477;52.742;15.242;2024-03-23T07:18:50;9.07;;;2.65;;
69334;SDS011;56477;52.742;15.242;2024-03-23T07:21:15;9.73;;;2.70;;
69334;SDS011;56477;52.742;15.242;2024-03-23T07:23:42;8.63;;;2.40;;
69334;SDS011;56477;52.742;15.242;2024-03-23T07:26:10;7.00;;;1.85;;
69334;SDS011;56477;52.742;15.242;2024-03-23T07:28:36;5.95;;;1.42;;
69334;SDS011;56477;52.742;15.242;2024-03-23T07:31:04;7.40;;;1.92;;
69334;SDS011;56477;52.742;15.242;2024-03-23T07:33:35;8.00;;;1.57;;
69334;SDS011;56477;52.742;15.242;2024-03-23T07:36:01;13.45;;;3.53;;
69334;SDS011;56477;52.742;15.242;2024-03-23T07:38:28;7.07;;;1.85;;
69334;SDS011;56477;52.742;15.242;2024-03-23T07:41:07;9.02;;;2.33;;
69334;SDS011;56477;52.742;15.242;2024-03-23T07:43:34;10.70;;;2.38;;
69334;SDS011;56477;52.742;15.242;2024-03-23T07:46:01;6.40;;;2.07;;
69334;SDS011;56477;52.742;15.242;2024-03-23T07:48:29;7.93;;;2.58;;
69334;SDS011;56477;52.742;15.242;2024-03-23T07:50:59;9.20;;;2.72;;
69334;SDS011;56477;52.742;15.242;2024-03-23T07:53:29;10.25;;;3.15;;
69334;SDS011;56477;52.742;15.242;2024-03-23T07:55:55;10.60;;;3.13;;
69334;SDS011;56477;52.742;15.242;2024-03-23T07:58:22;14.63;;;4.63;;
69334;SDS011;56477;52.742;15.242;2024-03-23T08:00:48;12.90;;;5.25;;
69334;SDS011;56477;52.742;15.242;2024-03-23T08:03:14;10.98;;;3.60;;
69334;SDS011;56477;52.742;15.242;2024-03-23T08:05:40;13.23;;;3.10;;
69334;SDS011;56477;52.742;15.242;2024-03-23T08:08:06;10.05;;;3.22;;
69334;SDS011;56477;52.742;15.242;2024-03-23T08:10:32;10.65;;;3.30;;
69334;SDS011;56477;52.742;15.242;2024-03-23T08:12:58;13.93;;;3.70;;
69334;SDS011;56477;52.742;15.242;2024-03-23T08:15:24;10.77;;;3.13;;
69334;SDS011;56477;52.742;15.242;2024-03-23T08:17:50;9.93;;;4.43;;
69334;SDS011;56477;52.742;15.242;2024-03-23T08:20:16;13.45;;;3.22;;
69334;SDS011;56477;52.742;15.242;2024-03-23T08:22:42;8.07;;;2.37;;
69334;SDS011;56477;52.742;15.242;2024-03-23T08:25:08;8.88;;;2.97;;
69334;SDS011;56477;52.742;15.242;2024-03-23T08:27:34;14.07;;;3.45;;
69334;SDS011;56477;52.742;15.242;2024-03-23T08:29:59;13.37;;;3.10;;
69334;SDS011;56477;52.742;15.242;2024-03-23T08:32:25;14.93;;;2.97;;
69334;SDS011;56477;52.742;15.242;2024-03-23T08:34:51;14.00;;;2.63;;
69334;SDS011;56477;52.742;15.242;2024-03-23T08:37:17;11.77;;;2.80;;
69334;SDS011;56477;52.742;15.242;2024-03-23T08:39:43;11.23;;;3.08;;
69334;SDS011;56477;52.742;15.242;2024-03-23T08:42:09;7.78;;;2.70;;
69334;SDS011;56477;52.742;15.242;2024-03-23T08:44:35;12.47;;;2.77;;
69334;SDS011;56477;52.742;15.242;2024-03-23T08:47:01;7.15;;;2.33;;
69334;SDS011;56477;52.742;15.242;2024-03-23T08:49:27;9.10;;;1.95;;
69334;SDS011;56477;52.742;15.242;2024-03-23T08:51:53;8.77;;;2.20;;
69334;SDS011;56477;52.742;15.242;2024-03-23T08:54:20;12.55;;;1.88;;
69334;SDS011;56477;52.742;15.242;2024-03-23T08:56:47;7.75;;;2.00;;
69334;SDS011;56477;52.742;15.242;2024-03-23T08:59:13;11.43;;;2.27;;
69334;SDS011;56477;52.742;15.242;2024-03-23T09:01:39;5.17;;;1.70;;
69334;SDS011;56477;52.742;15.242;2024-03-23T09:04:05;6.82;;;1.30;;
69334;SDS011;56477;52.742;15.242;2024-03-23T09:06:31;4.68;;;1.00;;
69334;SDS011;56477;52.742;15.242;2024-03-23T09:08:57;4.03;;;1.10;;
69334;SDS011;56477;52.742;15.242;2024-03-23T09:11:23;9.68;;;1.38;;
69334;SDS011;56477;52.742;15.242;2024-03-23T09:13:49;6.10;;;1.43;;
69334;SDS011;56477;52.742;15.242;2024-03-23T09:16:15;7.65;;;1.63;;
69334;SDS011;56477;52.742;15.242;2024-03-23T09:18:40;8.80;;;1.77;;
69334;SDS011;56477;52.742;15.242;2024-03-23T09:21:13;7.18;;;2.03;;
69334;SDS011;56477;52.742;15.242;2024-03-23T09:23:40;5.87;;;1.20;;
69334;SDS011;56477;52.742;15.242;2024-03-23T09:26:08;5.68;;;0.90;;
69334;SDS011;56477;52.742;15.242;2024-03-23T09:28:34;7.40;;;1.60;;
69334;SDS011;56477;52.742;15.242;2024-03-23T09:31:07;4.18;;;1.25;;
69334;SDS011;56477;52.742;15.242;2024-03-23T09:33:36;8.10;;;1.60;;
69334;SDS011;56477;52.742;15.242;2024-03-23T09:36:03;5.50;;;1.20;;
69334;SDS011;56477;52.742;15.242;2024-03-23T09:38:29;6.07;;;1.35;;
69334;SDS011;56477;52.742;15.242;2024-03-23T09:40:56;6.05;;;1.40;;
69334;SDS011;56477;52.742;15.242;2024-03-23T09:43:23;4.28;;;0.90;;
69334;SDS011;56477;52.742;15.242;2024-03-23T09:45:49;7.53;;;1.50;;
69334;SDS011;56477;52.742;15.242;2024-03-23T09:48:15;6.53;;;2.20;;
69334;SDS011;56477;52.742;15.242;2024-03-23T09:50:42;7.57;;;2.10;;
69334;SDS011;56477;52.742;15.242;2024-03-23T09:53:09;6.63;;;1.30;;
69334;SDS011;56477;52.742;15.242;2024-03-23T09:55:37;10.23;;;1.73;;
69334;SDS011;56477;52.742;15.242;2024-03-23T09:58:04;7.72;;;1.70;;
69334;SDS011;56477;52.742;15.242;2024-03-23T10:00:31;6.93;;;1.40;;
69334;SDS011;56477;52.742;15.242;2024-03-23T10:02:58;6.60;;;1.63;;
69334;SDS011;56477;52.742;15.242;2024-03-23T10:05:28;7.47;;;1.57;;
69334;SDS011;56477;52.742;15.242;2024-03-23T10:07:54;9.05;;;1.63;;
69334;SDS011;56477;52.742;15.242;2024-03-23T10:10:20;8.20;;;2.03;;
69334;SDS011;56477;52.742;15.242;2024-03-23T10:12:50;10.32;;;2.50;;
69334;SDS011;56477;52.742;15.242;2024-03-23T10:15:20;6.85;;;2.28;;
69334;SDS011;56477;52.742;15.242;2024-03-23T10:17:50;7.00;;;2.27;;
69334;SDS011;56477;52.742;15.242;2024-03-23T10:20:20;8.75;;;2.55;;
69334;SDS011;56477;52.742;15.242;2024-03-23T10:22:50;9.52;;;2.78;;
69334;SDS011;56477;52.742;15.242;2024-03-23T10:25:24;6.32;;;2.20;;
69334;SDS011;56477;52.742;15.242;2024-03-23T10:27:59;10.00;;;2.78;;
69334;SDS011;56477;52.742;15.242;2024-03-23T10:30:27;7.63;;;2.37;;
69334;SDS011;56477;52.742;15.242;2024-03-23T10:33:11;10.23;;;2.03;;
69334;SDS011;56477;52.742;15.242;2024-03-23T10:35:38;6.85;;;1.70;;
69334;SDS011;56477;52.742;15.242;2024-03-23T10:38:07;8.35;;;1.88;;
69334;SDS011;56477;52.742;15.242;2024-03-23T10:40:34;7.47;;;2.10;;
69334;SDS011;56477;52.742;15.242;2024-03-23T10:43:00;9.93;;;2.97;;
69334;SDS011;56477;52.742;15.242;2024-03-23T10:45:29;8.38;;;1.88;;
69334;SDS011;56477;52.742;15.242;2024-03-23T10:47:55;6.80;;;2.08;;
69334;SDS011;56477;52.742;15.242;2024-03-23T10:50:22;7.70;;;1.75;;
69334;SDS011;56477;52.742;15.242;2024-03-23T10:52:48;7.28;;;1.90;;
69334;SDS011;56477;52.742;15.242;2024-03-23T10:55:18;6.10;;;1.20;;
69334;SDS011;56477;52.742;15.242;2024-03-23T10:57:55;6.40;;;1.48;;
69334;SDS011;56477;52.742;15.242;2024-03-23T11:00:24;5.30;;;1.35;;
69334;SDS011;56477;52.742;15.242;2024-03-23T11:02:50;7.60;;;1.35;;
69334;SDS011;56477;52.742;15.242;2024-03-23T11:07:52;8.77;;;1.30;;
69334;SDS011;56477;52.742;15.242;2024-03-23T11:10:37;5.65;;;1.33;;
69334;SDS011;56477;52.742;15.242;2024-03-23T11:16:16;8.52;;;1.77;;
69334;SDS011;56477;52.742;15.242;2024-03-23T11:19:33;4.95;;;1.45;;
69334;SDS011;56477;52.742;15.242;2024-03-23T11:22:02;9.50;;;1.50;;
69334;SDS011;56477;52.742;15.242;2024-03-23T11:24:31;6.00;;;1.58;;
69334;SDS011;56477;52.742;15.242;2024-03-23T11:26:58;9.32;;;1.77;;
69334;SDS011;56477;52.742;15.242;2024-03-23T11:29:29;7.15;;;1.23;;
69334;SDS011;56477;52.742;15.242;2024-03-23T11:31:55;7.35;;;1.58;;
69334;SDS011;56477;52.742;15.242;2024-03-23T11:34:21;5.37;;;1.30;;
69334;SDS011;56477;52.742;15.242;2024-03-23T11:36:48;6.18;;;1.73;;
69334;SDS011;56477;52.742;15.242;2024-03-23T11:39:18;6.00;;;1.55;;
69334;SDS011;56477;52.742;15.242;2024-03-23T11:41:49;7.63;;;1.95;;
69334;SDS011;56477;52.742;15.242;2024-03-23T11:44:16;9.13;;;3.00;;
69334;SDS011;56477;52.742;15.242;2024-03-23T11:46:49;6.90;;;1.65;;
69334;SDS011;56477;52.742;15.242;2024-03-23T11:49:21;4.80;;;1.38;;
69334;SDS011;56477;52.742;15.242;2024-03-23T11:51:50;5.25;;;1.27;;
69334;SDS011;56477;52.742;15.242;2024-03-23T11:54:20;3.20;;;1.30;;
69334;SDS011;56477;52.742;15.242;2024-03-23T11:56:56;8.57;;;2.30;;
69334;SDS011;56477;52.742;15.242;2024-03-23T11:59:32;7.25;;;1.70;;
69334;SDS011;56477;52.742;15.242;2024-03-23T12:04:41;6.00;;;1.63;;
69334;SDS011;56477;52.742;15.242;2024-03-23T12:07:17;7.15;;;1.85;;
69334;SDS011;56477;52.742;15.242;2024-03-23T12:09:45;8.27;;;1.97;;
69334;SDS011;56477;52.742;15.242;2024-03-23T12:12:30;7.60;;;1.80;;
69334;SDS011;56477;52.742;15.242;2024-03-23T12:15:05;8.50;;;1.75;;
69334;SDS011;56477;52.742;15.242;2024-03-23T12:17:34;9.00;;;2.47;;
69334;SDS011;56477;52.742;15.242;2024-03-23T12:20:00;7.90;;;1.40;;
69334;SDS011;56477;52.742;15.242;2024-03-23T12:22:27;7.13;;;1.40;;
69334;SDS011;56477;52.742;15.242;2024-03-23T12:24:55;8.15;;;1.75;;
69334;SDS011;56477;52.742;15.242;2024-03-23T12:27:21;8.90;;;2.17;;
69334;SDS011;56477;52.742;15.242;2024-03-23T12:29:48;9.38;;;1.65;;
69334;SDS011;56477;52.742;15.242;2024-03-23T12:32:14;7.93;;;1.90;;
69334;SDS011;56477;52.742;15.242;2024-03-23T12:34:41;7.28;;;1.58;;
69334;SDS011;56477;52.742;15.242;2024-03-23T12:37:07;6.00;;;1.40;;
69334;SDS011;56477;52.742;15.242;2024-03-23T12:39:34;5.07;;;1.50;;
69334;SDS011;56477;52.742;15.242;2024-03-23T12:42:01;5.10;;;1.45;;
69334;SDS011;56477;52.742;15.242;2024-03-23T12:44:30;4.83;;;1.30;;
69334;SDS011;56477;52.742;15.242;2024-03-23T12:46:56;5.35;;;2.13;;
69334;SDS011;56477;52.742;15.242;2024-03-23T12:49:21;5.50;;;1.40;;
69334;SDS011;56477;52.742;15.242;2024-03-23T12:51:52;5.13;;;1.50;;
69334;SDS011;56477;52.742;15.242;2024-03-23T12:54:21;3.30;;;1.00;;
69334;SDS011;56477;52.742;15.242;2024-03-23T12:56:47;6.95;;;0.80;;
69334;SDS011;56477;52.742;15.242;2024-03-23T12:59:13;4.07;;;1.00;;
69334;SDS011;56477;52.742;15.242;2024-03-23T13:01:39;3.60;;;1.00;;
69334;SDS011;56477;52.742;15.242;2024-03-23T13:04:05;6.82;;;1.50;;
69334;SDS011;56477;52.742;15.242;2024-03-23T13:06:32;5.40;;;1.23;;
69334;SDS011;56477;52.742;15.242;2024-03-23T13:09:02;4.57;;;1.50;;
69334;SDS011;56477;52.742;15.242;2024-03-23T13:11:31;5.68;;;1.70;;
69334;SDS011;56477;52.742;15.242;2024-03-23T13:13:57;5.70;;;2.30;;
69334;SDS011;56477;52.742;15.242;2024-03-23T13:16:23;5.50;;;1.75;;
69334;SDS011;56477;52.742;15.242;2024-03-23T13:18:49;4.00;;;1.17;;
69334;SDS011;56477;52.742;15.242;2024-03-23T13:21:15;5.30;;;1.40;;
69334;SDS011;56477;52.742;15.242;2024-03-23T13:23:41;3.75;;;0.73;;
69334;SDS011;56477;52.742;15.242;2024-03-23T13:26:09;3.30;;;0.70;;
69334;SDS011;56477;52.742;15.242;2024-03-23T13:28:35;2.72;;;0.70;;
69334;SDS011;56477;52.742;15.242;2024-03-23T13:31:01;6.22;;;1.05;;
69334;SDS011;56477;52.742;15.242;2024-03-23T13:33:32;7.32;;;1.63;;
69334;SDS011;56477;52.742;15.242;2024-03-23T13:35:58;6.03;;;1.57;;
69334;SDS011;56477;52.742;15.242;2024-03-23T13:38:24;4.40;;;1.40;;
69334;SDS011;56477;52.742;15.242;2024-03-23T13:40:51;5.28;;;2.45;;
69334;SDS011;56477;52.742;15.242;2024-03-23T13:43:19;8.18;;;2.10;;
69334;SDS011;56477;52.742;15.242;2024-03-23T13:45:47;5.07;;;1.33;;
69334;SDS011;56477;52.742;15.242;2024-03-23T13:48:14;5.75;;;1.67;;
69334;SDS011;56477;52.742;15.242;2024-03-23T13:50:41;5.10;;;1.73;;
69334;SDS011;56477;52.742;15.242;2024-03-23T13:53:07;6.53;;;1.30;;
69334;SDS011;56477;52.742;15.242;2024-03-23T13:55:35;3.72;;;1.40;;
69334;SDS011;56477;52.742;15.242;2024-03-23T13:58:01;7.00;;;1.60;;
69334;SDS011;56477;52.742;15.242;2024-03-23T14:00:27;5.15;;;0.90;;
69334;SDS011;56477;52.742;15.242;2024-03-23T14:02:53;4.80;;;1.83;;
69334;SDS011;56477;52.742;15.242;2024-03-23T14:05:19;6.85;;;1.77;;
69334;SDS011;56477;52.742;15.242;2024-03-23T14:07:45;7.18;;;1.48;;
69334;SDS011;56477;52.742;15.242;2024-03-23T14:10:11;4.43;;;1.00;;
69334;SDS011;56477;52.742;15.242;2024-03-23T14:12:37;3.40;;;0.93;;
69334;SDS011;56477;52.742;15.242;2024-03-23T14:15:06;6.53;;;1.17;;
69334;SDS011;56477;52.742;15.242;2024-03-23T14:17:32;1.98;;;0.40;;
69334;SDS011;56477;52.742;15.242;2024-03-23T14:19:58;5.40;;;1.00;;
69334;SDS011;56477;52.742;15.242;2024-03-23T14:22:29;5.20;;;1.13;;
69334;SDS011;56477;52.742;15.242;2024-03-23T14:24:55;6.53;;;1.35;;
69334;SDS011;56477;52.742;15.242;2024-03-23T14:27:21;6.85;;;1.65;;
69334;SDS011;56477;52.742;15.242;2024-03-23T14:29:50;5.35;;;1.38;;
69334;SDS011;56477;52.742;15.242;2024-03-23T14:32:16;3.20;;;0.77;;
69334;SDS011;56477;52.742;15.242;2024-03-23T14:34:42;4.45;;;1.05;;
69334;SDS011;56477;52.742;15.242;2024-03-23T14:37:08;3.30;;;0.88;;
69334;SDS011;56477;52.742;15.242;2024-03-23T14:39:34;4.97;;;0.90;;
69334;SDS011;56477;52.742;15.242;2024-03-23T14:42:06;5.78;;;1.15;;
69334;SDS011;56477;52.742;15.242;2024-03-23T14:44:34;6.25;;;0.98;;
69334;SDS011;56477;52.742;15.242;2024-03-23T14:46:59;5.93;;;0.90;;
69334;SDS011;56477;52.742;15.242;2024-03-23T14:49:25;3.67;;;0.97;;
69334;SDS011;56477;52.742;15.242;2024-03-23T14:51:51;3.40;;;1.17;;
69334;SDS011;56477;52.742;15.242;2024-03-23T14:54:17;5.30;;;1.00;;
69334;SDS011;56477;52.742;15.242;2024-03-23T14:56:43;5.93;;;1.20;;
69334;SDS011;56477;52.742;15.242;2024-03-23T14:59:09;3.58;;;0.70;;
69334;SDS011;56477;52.742;15.242;2024-03-23T15:01:35;6.22;;;1.13;;
69334;SDS011;56477;52.742;15.242;2024-03-23T15:04:01;4.47;;;1.05;;
69334;SDS011;56477;52.742;15.242;2024-03-23T15:06:27;3.07;;;0.90;;
69334;SDS011;56477;52.742;15.242;2024-03-23T15:08:53;6.25;;;0.98;;
69334;SDS011;56477;52.742;15.242;2024-03-23T15:11:19;5.38;;;1.20;;
69334;SDS011;56477;52.742;15.242;2024-03-23T15:13:46;3.95;;;1.33;;
69334;SDS011;56477;52.742;15.242;2024-03-23T15:16:18;6.27;;;1.33;;
69334;SDS011;56477;52.742;15.242;2024-03-23T15:18:47;8.52;;;0.80;;
69334;SDS011;56477;52.742;15.242;2024-03-23T15:21:12;8.80;;;1.58;;
69334;SDS011;56477;52.742;15.242;2024-03-23T15:23:45;2.30;;;0.70;;
69334;SDS011;56477;52.742;15.242;2024-03-23T15:26:11;5.13;;;1.20;;
69334;SDS011;56477;52.742;15.242;2024-03-23T15:28:37;5.35;;;1.15;;
69334;SDS011;56477;52.742;15.242;2024-03-23T15:31:04;5.47;;;0.98;;